Terminal Aerodrome Forecast
Issued by NWS

Home | Current Version | Previous Version | Text Only | Print | Product List | Glossary On
Versions: 1 2 3 4 5 6 7 8 9 10 11 12 13 14 15 16
000
FTUS45 KVEF 231700
TAFBIH
TAF
KBIH 231720Z 2318/2418 36012KT P6SM FEW250
     FM232000 05007KT P6SM SCT250
     FM232200 14008KT P6SM BKN250
     FM240600 33006KT P6SM BKN250
     FM241400 VRB05KT P6SM BKN150=

USA.gov is the U.S. government's official web portal to all federal, state and local government web resources and services.